createdAt,value
2022-08-01T00:09:03.741Z,91.5
2022-08-01T00:14:32.191Z,91.7
2022-08-01T00:19:30.569Z,91.8
2022-08-01T00:24:52.966Z,92.0
2022-08-01T00:30:13.794Z,91.7
2022-08-01T00:34:45.699Z,91.3
2022-08-01T00:45:02.453Z,91.1
2022-08-01T00:50:04.830Z,91.4
2022-08-01T00:55:15.442Z,91.1
2022-08-01T01:00:17.685Z,91.1
2022-08-01T01:05:28.053Z,91.2
2022-08-01T01:10:20.424Z,90.7
2022-08-01T01:15:36.811Z,91.0
2022-08-01T01:20:43.265Z,91.6
2022-08-01T01:30:45.113Z,91.1
2022-08-01T01:41:08.898Z,91.7
2022-08-01T01:46:15.503Z,91.5
2022-08-01T01:51:21.902Z,92.3
2022-08-01T01:56:18.356Z,92.2
2022-08-01T02:01:58.806Z,91.8
2022-08-01T02:07:01.752Z,91.7
2022-08-01T02:12:08.887Z,91.8
2022-08-01T02:16:54.695Z,91.9
2022-08-01T02:22:05.415Z,92.2
2022-08-01T02:26:57.454Z,91.7
2022-08-01T02:32:04.105Z,92.5
2022-08-01T02:37:10.294Z,92.1
2022-08-01T02:42:50.712Z,92.1
2022-08-01T02:47:37.088Z,92.4
2022-08-01T02:52:29.419Z,93.1
2022-08-01T02:58:19.933Z,93.1
2022-08-01T03:03:46.345Z,92.4
2022-08-01T03:08:33.707Z,92.4
2022-08-01T03:14:04.145Z,92.9
2022-08-01T03:18:46.470Z,92.9
2022-08-01T03:23:55.194Z,92.8
2022-08-01T03:29:03.252Z,92.7
2022-08-01T03:33:55.598Z,92.6
2022-08-01T03:39:02.019Z,92.5
2022-08-01T03:44:18.394Z,92.8
2022-08-01T03:49:24.851Z,92.4
2022-08-01T03:54:31.168Z,92.5
2022-08-01T03:59:37.554Z,92.5
2022-08-01T04:04:47.952Z,92.3
2022-08-01T04:10:14.380Z,92.6
2022-08-01T04:14:56.725Z,92.0
2022-08-01T04:20:03.101Z,92.3
2022-08-01T04:24:59.464Z,92.5
2022-08-01T04:30:05.923Z,92.5
2022-08-01T04:41:08.924Z,92.4
2022-08-01T04:46:34.225Z,92.4
2022-08-01T04:51:24.570Z,92.8
2022-08-01T04:56:26.954Z,92.4
2022-08-01T05:01:33.457Z,92.3
2022-08-01T05:06:53.741Z,92.8
2022-08-01T05:11:36.100Z,92.6
2022-08-01T05:22:03.060Z,93.0
2022-08-01T05:27:05.247Z,92.9
2022-08-01T05:32:11.638Z,92.9
2022-08-01T05:37:18.020Z,92.3
2022-08-01T05:42:14.397Z,91.9
2022-08-01T05:59:15.806Z,92.8
2022-08-01T06:03:10.060Z,93.4
2022-08-01T06:07:56.408Z,93.5
2022-08-01T06:13:02.805Z,93.9
2022-08-01T06:18:09.169Z,93.0
2022-08-01T06:23:31.862Z,93.4
2022-08-01T06:28:42.052Z,92.9
2022-08-01T06:33:32.408Z,92.9
2022-08-01T06:48:46.559Z,92.8
2022-08-01T06:53:44.006Z,92.6
2022-08-01T06:58:59.331Z,93.0
2022-08-01T07:03:56.758Z,92.8
2022-08-01T07:09:14.563Z,93.1
2022-08-01T07:14:19.556Z,93.1
2022-08-01T07:24:32.339Z,92.9
2022-08-01T07:29:39.086Z,92.8
2022-08-01T07:34:45.465Z,92.9
2022-08-01T07:39:51.860Z,92.9
2022-08-01T07:44:58.236Z,92.9
2022-08-01T07:50:04.625Z,92.8
2022-08-01T07:55:16.230Z,93.3
2022-08-01T08:00:17.410Z,92.8
2022-08-01T08:06:07.899Z,93.3
2022-08-01T08:10:50.288Z,93.2
2022-08-01T08:15:36.629Z,93.4
2022-08-01T08:21:11.067Z,93.5
2022-08-01T08:25:49.389Z,93.6
2022-08-01T08:30:45.751Z,93.3
2022-08-01T08:36:02.166Z,93.1
2022-08-01T08:40:58.515Z,93.0
2022-08-01T08:46:42.960Z,93.3
2022-08-01T08:51:21.290Z,93.0
2022-08-01T08:56:28.229Z,93.0
2022-08-01T09:01:34.659Z,92.9
2022-08-01T09:06:41.053Z,93.0
2022-08-01T09:11:57.242Z,93.1
2022-08-01T09:16:57.828Z,93.1
2022-08-01T09:22:00.206Z,93.4
2022-08-01T09:32:51.059Z,93.3
2022-08-01T09:37:57.533Z,92.9
2022-08-01T09:42:53.894Z,92.9
2022-08-01T09:48:10.544Z,93.1
2022-08-01T09:53:50.892Z,92.8
2022-08-01T09:58:13.046Z,92.9
2022-08-01T10:03:28.572Z,92.8
2022-08-01T10:08:25.865Z,92.8
2022-08-01T10:13:36.360Z,93.0
2022-08-01T10:18:48.722Z,92.9
2022-08-01T10:29:45.666Z,92.6
2022-08-01T10:34:07.862Z,92.2
2022-08-01T10:39:34.411Z,91.8
2022-08-01T10:49:27.305Z,90.8
2022-08-01T10:54:25.176Z,90.3
2022-08-01T10:59:49.646Z,89.7
2022-08-01T11:05:06.508Z,89.1
2022-08-01T11:09:52.836Z,88.4
2022-08-01T11:14:59.303Z,87.7
2022-08-01T11:20:05.653Z,87.2
2022-08-01T11:25:12.032Z,86.2
2022-08-01T11:30:18.407Z,84.7
2022-08-01T11:35:28.820Z,84.1
2022-08-01T11:40:34.339Z,81.9
2022-08-01T11:46:24.787Z,82.2
2022-08-01T11:51:01.871Z,79.9
2022-08-01T11:55:57.640Z,79.1
2022-08-01T12:06:26.535Z,75.3
2022-08-01T12:11:12.891Z,74.1
2022-08-01T12:16:19.262Z,73.2
2022-08-01T12:21:15.682Z,72.8
2022-08-01T12:28:09.323Z,72.3
2022-08-01T12:33:28.736Z,72.3
2022-08-01T12:37:23.127Z,72.2
2022-08-01T12:42:33.462Z,72.7
2022-08-01T12:47:35.842Z,72.8
2022-08-01T12:52:42.215Z,72.8
2022-08-01T12:57:48.648Z,72.6
2022-08-01T13:02:55.000Z,73.0
2022-08-01T13:08:07.293Z,73.1
2022-08-01T13:13:11.813Z,73.1
2022-08-01T13:18:14.234Z,73.4
2022-08-01T13:24:01.544Z,73.2
2022-08-01T13:28:29.304Z,73.3
2022-08-01T13:39:16.290Z,73.0
2022-08-01T13:45:14.182Z,73.1
2022-08-01T13:49:37.310Z,73.1
2022-08-01T13:54:36.467Z,72.9
2022-08-01T13:59:32.978Z,73.0
2022-08-01T14:04:49.587Z,72.9
2022-08-01T14:10:18.450Z,73.1
2022-08-01T14:15:46.674Z,72.9
2022-08-01T14:20:08.915Z,72.9
2022-08-01T14:26:54.442Z,66.6
2022-08-01T14:32:01.908Z,68.6
2022-08-01T14:42:58.854Z,69.2
2022-08-01T14:47:16.241Z,69.8
2022-08-01T14:52:51.619Z,70.4
2022-08-01T14:57:37.506Z,70.7
2022-08-01T15:02:43.890Z,70.9
2022-08-01T15:07:52.668Z,71.2
2022-08-01T15:12:57.386Z,71.7
2022-08-01T15:18:03.769Z,71.8
2022-08-01T15:23:10.160Z,72.0
2022-08-01T15:28:16.572Z,71.8
2022-08-01T15:33:26.999Z,71.9
2022-08-01T15:38:29.420Z,72.2
2022-08-01T15:43:41.821Z,72.3
2022-08-01T15:48:33.523Z,72.4
2022-08-01T15:53:48.558Z,72.4
2022-08-01T15:58:44.906Z,72.6
2022-08-01T16:03:51.419Z,72.7
2022-08-01T16:08:57.929Z,72.9
2022-08-01T16:14:04.323Z,73.1
2022-08-01T16:19:10.817Z,73.2
2022-08-01T16:24:27.281Z,73.1
2022-08-01T16:29:37.682Z,73.2
2022-08-01T16:34:42.002Z,73.0
2022-08-01T16:39:47.497Z,73.2
2022-08-01T16:45:27.176Z,72.9
2022-08-01T16:50:38.627Z,73.7
2022-08-01T16:55:49.670Z,73.0
2022-08-01T17:00:56.543Z,73.1
2022-08-01T17:06:22.329Z,73.4
2022-08-01T17:11:23.771Z,73.6
2022-08-01T17:16:10.142Z,73.9
2022-08-01T17:21:16.504Z,74.0
2022-08-01T17:26:57.004Z,74.0
2022-08-01T17:37:31.432Z,74.1
2022-08-01T17:42:21.769Z,73.9
2022-08-01T17:47:58.415Z,73.9
2022-08-01T17:53:29.881Z,73.9
2022-08-01T18:04:16.400Z,74.1
2022-08-01T18:09:09.478Z,74.4
2022-08-01T18:19:16.119Z,74.7
2022-08-01T18:25:34.667Z,74.6
2022-08-01T18:29:23.094Z,75.2
2022-08-01T18:34:35.419Z,75.4
2022-08-01T18:39:41.773Z,76.0
2022-08-01T18:44:52.177Z,76.3
2022-08-01T18:49:58.567Z,76.3
2022-08-01T18:54:51.063Z,76.4
2022-08-01T19:00:08.114Z,76.5
2022-08-01T19:05:28.525Z,76.1
2022-08-01T19:10:09.925Z,76.2
2022-08-01T19:15:27.335Z,75.9
2022-08-01T19:21:25.080Z,76.0
2022-08-01T19:25:55.466Z,75.8
2022-08-01T19:30:53.505Z,75.9
2022-08-01T19:35:56.179Z,76.0
2022-08-01T19:41:02.538Z,76.2
2022-08-01T19:46:17.623Z,76.4
2022-08-01T19:52:31.471Z,76.5
2022-08-01T19:56:45.762Z,76.6
2022-08-01T20:01:28.101Z,76.7
2022-08-01T20:06:35.051Z,77.0
2022-08-01T20:12:05.488Z,77.0
2022-08-01T20:16:47.844Z,77.1
2022-08-01T20:22:02.370Z,77.3
2022-08-01T20:27:41.763Z,77.4
2022-08-01T20:33:09.193Z,77.8
2022-08-01T20:38:05.381Z,77.7
2022-08-01T20:42:51.893Z,77.8
2022-08-01T20:48:12.455Z,78.1
2022-08-01T20:53:14.680Z,78.1
2022-08-01T20:58:11.036Z,78.4
2022-08-01T21:03:41.489Z,78.7
2022-08-01T21:08:58.138Z,78.9
2022-08-01T21:13:31.118Z,79.0
2022-08-01T21:19:20.526Z,79.3
2022-08-01T21:23:53.941Z,79.1
2022-08-01T21:29:02.269Z,79.3
2022-08-01T21:39:13.060Z,79.6
2022-08-01T21:44:39.492Z,79.9
2022-08-01T21:49:25.925Z,79.7
2022-08-01T21:54:32.252Z,79.7
2022-08-01T21:59:38.725Z,80.0
2022-08-01T22:04:45.117Z,79.8
2022-08-01T22:09:41.473Z,80.1
2022-08-01T22:14:47.893Z,80.3
2022-08-01T22:20:28.322Z,80.2
2022-08-01T22:25:00.646Z,80.4
2022-08-01T22:30:07.031Z,80.4
2022-08-01T22:36:25.518Z,80.6
2022-08-01T22:40:29.788Z,80.5
2022-08-01T22:46:36.299Z,80.7
2022-08-01T22:55:58.738Z,81.0
2022-08-01T23:00:55.326Z,81.1
2022-08-01T23:05:52.665Z,81.0
2022-08-01T23:12:00.192Z,81.1
2022-08-01T23:16:17.527Z,81.3
2022-08-01T23:21:21.079Z,81.2
2022-08-01T23:33:05.789Z,81.3
2022-08-01T23:38:33.188Z,81.4
2022-08-01T23:43:23.550Z,81.4
2022-08-01T23:48:25.916Z,81.5
2022-08-01T23:53:22.275Z,81.6
2022-08-01T23:58:46.261Z,81.3
